Terminal Aerodrome Forecast
Issued by NWS Bismarck, ND

Home | Current Version | Previous Version | Graphics & Text | Print | Product List | Glossary On
Versions: 1 2 3 4 5 6 7 8 9 10 11 12 13 14
000
FTUS43 KBIS 301730
TAFISN
TAF
KISN 301730Z 3018/0118 18014G22KT P6SM SCT100 BKN150
     FM302300 14013KT P6SM SCT200
     FM010600 16006KT P6SM SCT200=

USA.gov is the U.S. government's official web portal to all federal, state and local government web resources and services.